Terminal Aerodrome Forecast
Issued by NWS Chicago, IL

Home | Current Version | Previous Version | Text Only | Print | Product List | Glossary Off
Versions: 1 2 3 4 5 6 7 8 9 10 11 12 13 14 15 16 17 18 19 20 21 22 23 24 25 26 27 28 29 30 31 32

000
FTUS43 KLOT 151417 AAA
TAFRFD
TAF AMD
KRFD 151417Z 1514/1612 09011G18KT P6SM BKN200
     FM151800 10014G20KT P6SM BKN150
     FM160100 08009KT P6SM SCT040 BKN120
     FM160900 06006KT P6SM BKN025=

USA.gov is the U.S. government's official web portal to all federal, state and local government web resources and services.